Terminal Aerodrome Forecast
Issued by NWS Jackson, MS

Home | Current Version | Previous Version | Text Only | Print | Product List | Glossary On
Versions: 1 2 3 4 5 6 7 8 9 10 11 12
754
FTUS44 KJAN 082332
TAFGWO
TAF
KGWO 082332Z 0900/0924 30012G18KT P6SM SCT060 BKN080
     FM090500 28005KT P6SM SCT050
     FM091400 29014G23KT P6SM SCT050=

USA.gov is the U.S. government's official web portal to all federal, state and local government web resources and services.